Time;durP1;ratioP1;P1;durP2;ratioP2;P2;SDS_P1;SDS_P2;PMS_P1;PMS_P2;Temp;Humidity;BMP_temperature;BMP_pressure;BME280_temperature;BME280_humidity;BME280_pressure;Samples;Min_cycle;Max_cycle;Signal;HPM_P1;HPM_P2
2021/09/26 00:00:30;;;;;;;12.10;6.28;;;16.60;95.40;;;;;;5031866;28;20052;-76
2021/09/26 00:02:56;;;;;;;11.38;7.40;;;16.60;95.40;;;;;;5031743;28;20021;-76
2021/09/26 00:05:21;;;;;;;13.68;7.35;;;16.50;95.40;;;;;;5029903;28;20025;-76
2021/09/26 00:07:47;;;;;;;13.52;7.03;;;16.50;95.40;;;;;;5030433;28;20057;-75
2021/09/26 00:10:13;;;;;;;12.95;7.18;;;16.50;95.40;;;;;;5031138;28;20478;-76
2021/09/26 00:12:39;;;;;;;11.95;7.05;;;16.50;95.40;;;;;;5031867;28;20030;-75
2021/09/26 00:15:09;;;;;;;13.52;7.55;;;16.40;95.40;;;;;;5029775;28;20051;-76
2021/09/26 00:17:35;;;;;;;12.70;6.88;;;16.50;95.50;;;;;;5031311;28;20026;-76
2021/09/26 00:20:00;;;;;;;14.13;6.88;;;16.40;95.40;;;;;;5030806;28;20026;-76
2021/09/26 00:22:26;;;;;;;12.43;6.32;;;16.40;95.40;;;;;;5031685;28;20021;-76
2021/09/26 00:24:52;;;;;;;12.63;6.80;;;16.40;95.40;;;;;;5031625;28;20393;-76
2021/09/26 00:27:17;;;;;;;14.45;6.72;;;16.40;95.40;;;;;;5031031;28;20096;-76
2021/09/26 00:29:43;;;;;;;12.85;6.45;;;16.40;95.40;;;;;;5032535;28;20026;-76
2021/09/26 00:32:10;;;;;;;11.20;6.30;;;16.40;95.40;;;;;;5034895;28;20022;-76
2021/09/26 00:34:36;;;;;;;12.27;6.55;;;16.40;95.50;;;;;;5034838;28;20424;-76
2021/09/26 00:37:02;;;;;;;13.70;6.47;;;16.40;95.50;;;;;;5034521;28;20052;-76
2021/09/26 00:39:28;;;;;;;16.42;6.85;;;16.40;95.40;;;;;;5034730;28;20033;-76
2021/09/26 00:41:54;;;;;;;13.75;6.93;;;16.40;95.40;;;;;;5035063;28;20380;-75
2021/09/26 00:44:19;;;;;;;12.93;5.80;;;16.40;95.40;;;;;;5033222;28;20017;-75
2021/09/26 00:46:45;;;;;;;14.50;7.15;;;16.40;95.40;;;;;;5035776;28;20382;-76
2021/09/26 00:49:11;;;;;;;14.88;6.75;;;16.30;95.40;;;;;;5033847;28;20083;-76
2021/09/26 00:51:37;;;;;;;14.45;7.07;;;16.30;95.40;;;;;;5034698;28;20036;-75
2021/09/26 00:54:04;;;;;;;14.73;7.30;;;16.30;95.70;;;;;;5032986;28;20075;-76
2021/09/26 00:56:30;;;;;;;15.75;6.95;;;16.30;95.40;;;;;;5034844;28;20029;-76
2021/09/26 00:58:56;;;;;;;14.52;6.95;;;16.30;95.40;;;;;;5034399;28;20033;-76
2021/09/26 01:01:22;;;;;;;12.75;6.78;;;16.30;95.40;;;;;;5034470;28;20025;-76
2021/09/26 01:03:48;;;;;;;13.27;6.22;;;16.20;95.50;;;;;;5034738;28;20025;-75
2021/09/26 01:06:28;;;;;;;15.30;7.50;;;16.20;95.40;;;;;;5034307;28;20057;-74
2021/09/26 01:09:12;;;;;;;12.77;6.47;;;16.20;95.40;;;;;;5034646;28;20065;-75
2021/09/26 01:11:55;;;;;;;13.52;7.00;;;16.20;95.50;;;;;;5034749;28;20021;-74
2021/09/26 01:14:51;;;;;;;9.93;6.15;;;16.20;95.50;;;;;;5032768;28;20501;-74
2021/09/26 01:17:26;;;;;;;11.32;6.10;;;16.20;95.50;;;;;;5031534;28;20140;-77
2021/09/26 01:20:22;;;;;;;13.18;7.07;;;16.20;95.50;;;;;;5034866;28;20163;-75
2021/09/26 01:23:17;;;;;;;14.45;6.70;;;16.10;95.40;;;;;;5034094;28;20079;-75
2021/09/26 01:26:01;;;;;;;11.88;5.97;;;16.10;95.40;;;;;;5032993;28;20075;-75
2021/09/26 01:28:55;;;;;;;12.73;6.43;;;16.10;95.40;;;;;;5033878;28;20105;-74
2021/09/26 01:31:44;;;;;;;14.20;6.95;;;16.10;95.40;;;;;;5032172;28;20462;-74
2021/09/26 01:34:24;;;;;;;12.68;6.18;;;16.10;95.40;;;;;;5033679;28;20032;-74
2021/09/26 01:36:55;;;;;;;10.85;5.55;;;16.00;95.40;;;;;;5033655;28;20176;-75
2021/09/26 01:39:26;;;;;;;11.50;6.03;;;16.00;95.30;;;;;;5032694;28;20038;-75
2021/09/26 01:41:55;;;;;;;11.20;6.20;;;16.00;95.40;;;;;;5034027;28;20080;-75
2021/09/26 01:44:36;;;;;;;13.57;6.57;;;15.90;95.40;;;;;;5033354;28;20018;-75
2021/09/26 01:47:05;;;;;;;11.23;6.38;;;16.00;95.50;;;;;;5032569;28;20021;-74
2021/09/26 01:49:39;;;;;;;10.55;5.93;;;16.00;95.50;;;;;;5032930;28;20049;-74
2021/09/26 01:52:09;;;;;;;13.40;6.35;;;15.90;95.50;;;;;;5033536;28;20508;-74
2021/09/26 01:54:37;;;;;;;14.63;6.90;;;15.90;95.50;;;;;;5033934;28;20068;-74
2021/09/26 01:57:03;;;;;;;12.77;7.30;;;15.90;95.40;;;;;;5033793;28;20025;-75
2021/09/26 01:59:30;;;;;;;14.23;6.97;;;15.90;95.50;;;;;;5033063;28;20037;-75
2021/09/26 02:01:58;;;;;;;14.38;6.85;;;15.90;95.50;;;;;;5033786;28;20022;-75
2021/09/26 02:04:25;;;;;;;11.48;6.82;;;15.90;95.60;;;;;;5031622;28;20040;-74
2021/09/26 02:06:52;;;;;;;12.80;6.65;;;15.90;95.60;;;;;;5033715;28;20025;-75
2021/09/26 02:09:19;;;;;;;12.55;6.95;;;15.80;95.50;;;;;;5031676;28;20026;-74
2021/09/26 02:11:45;;;;;;;16.38;6.95;;;15.80;95.50;;;;;;5033081;28;20039;-74
2021/09/26 02:14:13;;;;;;;12.55;6.72;;;15.80;95.50;;;;;;5033102;28;20098;-75
2021/09/26 02:16:39;;;;;;;13.32;6.93;;;15.80;95.50;;;;;;5031972;28;20025;-75
2021/09/26 02:19:06;;;;;;;16.42;6.78;;;15.80;95.50;;;;;;5033211;28;20069;-75
2021/09/26 02:21:32;;;;;;;12.32;6.35;;;15.80;95.50;;;;;;5031370;28;20044;-75
2021/09/26 02:23:59;;;;;;;13.13;7.03;;;15.80;95.50;;;;;;5033180;28;20084;-75
2021/09/26 02:26:26;;;;;;;13.75;7.40;;;15.80;95.50;;;;;;5032160;28;20045;-75
2021/09/26 02:28:51;;;;;;;13.48;7.00;;;15.80;95.50;;;;;;5031874;28;20389;-75
2021/09/26 02:31:18;;;;;;;13.52;7.05;;;15.80;95.40;;;;;;5032687;28;20121;-74
2021/09/26 02:33:46;;;;;;;14.55;7.30;;;15.80;95.50;;;;;;5031770;28;20550;-74
2021/09/26 02:36:13;;;;;;;14.15;7.10;;;15.80;95.40;;;;;;5032210;28;20049;-74
2021/09/26 02:38:40;;;;;;;12.82;6.45;;;15.80;95.40;;;;;;5032789;28;20041;-73
2021/09/26 02:41:22;;;;;;;12.43;6.78;;;15.80;95.40;;;;;;5032604;28;20486;-76
2021/09/26 02:43:54;;;;;;;13.50;6.90;;;15.80;95.40;;;;;;5031709;28;20373;-76
2021/09/26 02:46:29;;;;;;;16.10;6.97;;;15.80;95.40;;;;;;5032183;28;20034;-76
2021/09/26 02:48:56;;;;;;;15.60;7.68;;;15.80;95.40;;;;;;5032798;28;20021;-76
2021/09/26 02:51:22;;;;;;;12.40;6.72;;;15.70;95.40;;;;;;5031571;28;20021;-76
2021/09/26 02:53:49;;;;;;;14.48;6.85;;;15.70;95.40;;;;;;5031351;28;20453;-76
2021/09/26 02:56:15;;;;;;;11.90;6.68;;;15.80;95.50;;;;;;5031969;28;20086;-76
2021/09/26 02:58:41;;;;;;;11.43;6.70;;;15.70;95.40;;;;;;5032196;28;20030;-76
2021/09/26 03:01:06;;;;;;;14.95;6.60;;;15.70;95.40;;;;;;5032531;28;20022;-76
2021/09/26 03:03:33;;;;;;;12.85;6.70;;;15.70;95.50;;;;;;5028043;28;20029;-76
2021/09/26 03:05:58;;;;;;;15.13;6.97;;;15.70;95.40;;;;;;5029649;28;20021;-76
2021/09/26 03:08:24;;;;;;;13.20;6.60;;;15.70;95.40;;;;;;5029878;28;20370;-74
2021/09/26 03:10:56;;;;;;;14.05;6.95;;;15.70;95.40;;;;;;5033108;28;20033;-74
2021/09/26 03:13:22;;;;;;;13.10;6.72;;;15.70;95.40;;;;;;5030301;28;20029;-75
2021/09/26 03:15:48;;;;;;;14.45;6.35;;;15.70;95.40;;;;;;5030521;28;20537;-74
2021/09/26 03:18:14;;;;;;;11.77;6.30;;;15.70;95.40;;;;;;5031508;28;20038;-74
2021/09/26 03:20:40;;;;;;;11.02;6.43;;;15.70;95.40;;;;;;5032398;28;20075;-75
2021/09/26 03:23:06;;;;;;;13.43;6.82;;;15.60;95.70;;;;;;5032171;28;20049;-75
2021/09/26 03:25:33;;;;;;;11.95;6.32;;;15.60;95.40;;;;;;5030108;28;20025;-75
2021/09/26 03:27:58;;;;;;;12.02;7.05;;;15.60;95.40;;;;;;5032067;28;20033;-74
2021/09/26 03:30:24;;;;;;;10.90;6.25;;;15.60;95.40;;;;;;5031470;28;20029;-74
2021/09/26 03:32:50;;;;;;;12.15;7.07;;;15.70;95.70;;;;;;5030762;28;20080;-74
2021/09/26 03:35:16;;;;;;;13.00;7.03;;;15.70;95.40;;;;;;5031776;28;20030;-76
2021/09/26 03:37:43;;;;;;;12.82;7.28;;;15.70;95.40;;;;;;5031721;28;20057;-74
2021/09/26 03:40:10;;;;;;;15.13;6.95;;;15.70;95.30;;;;;;5032129;28;20033;-74
2021/09/26 03:42:37;;;;;;;13.52;6.75;;;15.80;95.30;;;;;;5030049;28;20079;-74
2021/09/26 03:45:04;;;;;;;13.80;7.00;;;15.80;95.30;;;;;;5031922;28;20026;-74
2021/09/26 03:47:30;;;;;;;14.65;7.85;;;15.80;95.30;;;;;;5031009;28;20021;-74
2021/09/26 03:49:56;;;;;;;10.95;5.80;;;15.80;95.30;;;;;;5030799;28;20121;-75
2021/09/26 03:52:21;;;;;;;12.07;6.85;;;15.80;95.30;;;;;;5029969;28;20486;-74
2021/09/26 03:54:50;;;;;;;16.35;8.35;;;15.80;95.40;;;;;;5030469;28;20029;-74
2021/09/26 03:57:16;;;;;;;14.85;7.43;;;15.70;95.30;;;;;;5031156;28;20025;-74
2021/09/26 03:59:42;;;;;;;13.48;6.82;;;15.80;95.40;;;;;;5031832;28;20079;-75
2021/09/26 04:02:08;;;;;;;13.98;7.10;;;15.80;95.30;;;;;;5031785;28;20096;-75
2021/09/26 04:04:34;;;;;;;13.68;7.32;;;15.80;95.30;;;;;;5033751;28;20026;-75
2021/09/26 04:07:00;;;;;;;12.38;6.68;;;15.90;95.60;;;;;;5035816;28;20029;-75
2021/09/26 04:09:25;;;;;;;14.02;7.43;;;15.90;95.20;;;;;;5035375;28;20420;-75
2021/09/26 04:11:51;;;;;;;12.90;6.78;;;15.90;95.20;;;;;;5035733;28;20021;-75
2021/09/26 04:14:17;;;;;;;14.07;6.82;;;16.00;95.20;;;;;;5034705;28;20021;-75
2021/09/26 04:16:42;;;;;;;12.18;6.28;;;15.90;95.20;;;;;;5035612;28;20022;-75
2021/09/26 04:19:08;;;;;;;14.02;7.07;;;15.90;95.20;;;;;;5035511;28;20030;-74
2021/09/26 04:21:34;;;;;;;12.57;6.55;;;15.90;95.20;;;;;;5033586;28;20029;-74
2021/09/26 04:23:59;;;;;;;12.82;7.15;;;15.90;95.30;;;;;;5035439;28;20469;-75
2021/09/26 04:26:25;;;;;;;11.48;6.55;;;15.90;95.30;;;;;;5034589;28;20018;-75
2021/09/26 04:28:51;;;;;;;14.50;7.45;;;15.90;95.30;;;;;;5034007;28;20428;-75
2021/09/26 04:31:16;;;;;;;14.85;6.97;;;15.90;95.30;;;;;;5035373;28;20021;-74
2021/09/26 04:33:42;;;;;;;13.60;6.93;;;15.90;95.30;;;;;;5034921;28;20112;-74
2021/09/26 04:36:08;;;;;;;13.18;7.45;;;15.90;95.20;;;;;;5033663;28;20542;-75
2021/09/26 04:38:34;;;;;;;13.13;6.88;;;16.00;95.30;;;;;;5034429;28;20087;-74
2021/09/26 04:41:00;;;;;;;14.63;7.25;;;16.00;95.20;;;;;;5035107;28;20052;-74
2021/09/26 04:43:25;;;;;;;11.70;6.75;;;16.00;95.20;;;;;;5033173;28;20022;-75
2021/09/26 04:45:51;;;;;;;14.20;7.10;;;15.90;95.20;;;;;;5033991;28;20423;-75
2021/09/26 04:48:17;;;;;;;11.50;6.50;;;16.00;95.30;;;;;;5033715;28;20430;-75
2021/09/26 04:50:43;;;;;;;12.73;6.65;;;16.00;95.30;;;;;;5034328;28;20022;-75
2021/09/26 04:53:09;;;;;;;12.30;6.75;;;16.00;95.20;;;;;;5034928;28;20013;-74
2021/09/26 04:55:34;;;;;;;12.55;6.47;;;16.00;95.20;;;;;;5034307;28;20052;-74
2021/09/26 04:58:00;;;;;;;11.80;7.07;;;16.00;95.20;;;;;;5033479;28;20022;-74
2021/09/26 05:00:27;;;;;;;14.70;7.32;;;16.00;95.40;;;;;;5032869;28;20488;-75
2021/09/26 05:02:52;;;;;;;13.82;7.43;;;16.00;95.10;;;;;;5034729;28;20477;-74
2021/09/26 05:05:18;;;;;;;12.35;6.68;;;16.10;95.20;;;;;;5034714;28;20056;-75
2021/09/26 05:07:44;;;;;;;10.63;6.13;;;16.10;95.10;;;;;;5034010;28;20064;-74
2021/09/26 05:10:10;;;;;;;14.07;7.15;;;16.10;95.10;;;;;;5034629;28;20026;-74
2021/09/26 05:12:36;;;;;;;12.40;6.95;;;16.10;95.10;;;;;;5034191;28;20108;-75
2021/09/26 05:15:04;;;;;;;14.93;7.13;;;16.20;95.10;;;;;;5032244;28;20104;-75
2021/09/26 05:17:31;;;;;;;12.23;5.95;;;16.20;95.10;;;;;;5032521;28;20467;-74
2021/09/26 05:19:57;;;;;;;12.20;6.50;;;16.20;95.10;;;;;;5033168;28;20025;-75
2021/09/26 05:22:23;;;;;;;11.40;6.93;;;16.20;95.10;;;;;;5033479;28;20037;-75
2021/09/26 05:24:49;;;;;;;18.05;7.15;;;16.20;95.00;;;;;;5034339;28;20048;-74
2021/09/26 05:27:14;;;;;;;12.63;7.00;;;16.20;95.10;;;;;;5032902;28;20087;-74
2021/09/26 05:29:40;;;;;;;15.15;7.38;;;16.20;95.10;;;;;;5033688;28;20025;-75
2021/09/26 05:32:10;;;;;;;14.05;6.88;;;16.20;95.10;;;;;;5033067;28;20017;-75
2021/09/26 05:34:36;;;;;;;11.75;7.22;;;16.20;95.10;;;;;;5032213;28;20168;-75
2021/09/26 05:37:02;;;;;;;14.10;7.07;;;16.20;95.10;;;;;;5034078;28;20132;-75
2021/09/26 05:39:28;;;;;;;13.75;7.22;;;16.20;95.00;;;;;;5033386;28;20061;-75
2021/09/26 05:41:55;;;;;;;13.25;6.80;;;16.30;95.00;;;;;;5034435;28;20501;-75
2021/09/26 05:44:21;;;;;;;13.10;6.78;;;16.30;95.00;;;;;;5032570;28;20112;-74
2021/09/26 05:46:47;;;;;;;13.20;6.65;;;16.30;95.00;;;;;;5031759;28;20018;-74
2021/09/26 05:49:13;;;;;;;15.57;7.13;;;16.40;95.00;;;;;;5034107;28;20026;-75
2021/09/26 05:51:39;;;;;;;13.20;6.90;;;16.40;95.00;;;;;;5031790;28;20029;-74
2021/09/26 05:54:05;;;;;;;15.82;7.47;;;16.40;94.90;;;;;;5033481;28;20120;-75
2021/09/26 05:56:31;;;;;;;14.23;6.63;;;16.40;94.90;;;;;;5031844;28;20381;-75
2021/09/26 05:58:56;;;;;;;12.70;7.13;;;16.40;94.90;;;;;;5032528;28;20037;-75
2021/09/26 06:01:22;;;;;;;16.40;7.68;;;16.40;95.00;;;;;;5033666;28;20030;-75
2021/09/26 06:03:48;;;;;;;12.68;6.13;;;16.40;95.10;;;;;;5031660;28;20108;-75
2021/09/26 06:06:13;;;;;;;11.73;6.50;;;16.40;95.20;;;;;;5033736;28;20104;-75
2021/09/26 06:08:39;;;;;;;11.52;7.00;;;16.30;95.20;;;;;;5031597;28;20079;-75
2021/09/26 06:11:05;;;;;;;13.88;6.72;;;16.30;95.30;;;;;;5032181;28;20037;-74
2021/09/26 06:13:32;;;;;;;13.30;7.68;;;16.40;95.30;;;;;;5031570;28;20029;-75
2021/09/26 06:15:59;;;;;;;17.02;8.18;;;16.30;95.40;;;;;;5033461;28;20026;-75
2021/09/26 06:18:25;;;;;;;13.45;6.82;;;16.40;95.50;;;;;;5033341;28;20033;-75
2021/09/26 06:20:51;;;;;;;13.65;6.85;;;16.40;95.50;;;;;;5033590;28;20025;-75
2021/09/26 06:23:17;;;;;;;12.98;7.13;;;16.40;95.40;;;;;;5032019;28;20109;-74
2021/09/26 06:25:43;;;;;;;12.23;7.32;;;16.40;95.50;;;;;;5032554;28;20036;-74
2021/09/26 06:28:09;;;;;;;13.73;6.80;;;16.50;95.50;;;;;;5032004;28;20017;-74
2021/09/26 06:30:37;;;;;;;14.02;6.65;;;16.50;95.40;;;;;;5031208;28;20026;-75
2021/09/26 06:33:04;;;;;;;15.57;7.32;;;16.50;95.40;;;;;;5033410;28;20104;-76
2021/09/26 06:35:30;;;;;;;14.00;7.72;;;16.50;95.50;;;;;;5032139;28;20074;-76
2021/09/26 06:37:56;;;;;;;13.40;7.78;;;16.50;95.50;;;;;;5032949;28;20037;-75
2021/09/26 06:40:22;;;;;;;13.82;8.30;;;16.50;95.50;;;;;;5031690;28;20377;-76
2021/09/26 06:42:48;;;;;;;14.23;7.88;;;16.50;95.50;;;;;;5032456;28;20528;-76
2021/09/26 06:45:13;;;;;;;14.27;7.28;;;16.60;95.60;;;;;;5032921;28;20493;-76
2021/09/26 06:47:39;;;;;;;16.85;7.70;;;16.60;95.50;;;;;;5032231;28;20171;-75
2021/09/26 06:50:07;;;;;;;16.70;7.50;;;16.60;95.60;;;;;;5032851;28;20032;-76
2021/09/26 06:52:32;;;;;;;12.80;6.90;;;16.70;95.60;;;;;;5030164;28;20032;-77
2021/09/26 06:54:58;;;;;;;16.70;7.88;;;16.70;95.50;;;;;;5031236;28;20022;-77
2021/09/26 06:57:24;;;;;;;13.50;7.65;;;16.80;95.50;;;;;;5031649;28;20489;-77
2021/09/26 06:59:49;;;;;;;13.85;7.00;;;16.80;95.40;;;;;;5031513;28;20060;-76
2021/09/26 07:02:21;;;;;;;13.45;7.13;;;16.80;95.30;;;;;;5031498;28;20095;-76
2021/09/26 07:04:47;;;;;;;13.18;7.10;;;16.90;95.30;;;;;;5032297;28;20036;-76
2021/09/26 07:07:13;;;;;;;12.48;7.50;;;16.90;95.30;;;;;;5027399;28;20033;-76
2021/09/26 07:09:40;;;;;;;15.75;7.65;;;17.00;95.30;;;;;;5017622;28;20034;-77
2021/09/26 07:12:06;;;;;;;13.80;7.40;;;17.00;95.20;;;;;;5032384;28;20059;-77
2021/09/26 07:14:32;;;;;;;13.80;7.40;;;17.10;95.20;;;;;;5028870;28;20466;-75
2021/09/26 07:16:58;;;;;;;15.45;7.78;;;17.10;95.10;;;;;;5046498;28;20060;-75
2021/09/26 07:19:23;;;;;;;13.05;7.32;;;17.20;95.10;;;;;;5031142;28;20037;-76
2021/09/26 07:21:49;;;;;;;14.18;7.18;;;17.20;95.10;;;;;;5030972;28;20109;-76
2021/09/26 07:24:15;;;;;;;12.50;7.30;;;17.30;95.00;;;;;;5030142;28;20367;-75
2021/09/26 07:26:41;;;;;;;13.82;7.65;;;17.30;95.00;;;;;;5031025;28;20021;-75
2021/09/26 07:29:06;;;;;;;13.00;6.97;;;17.40;95.00;;;;;;5026672;28;20098;-75
2021/09/26 07:31:32;;;;;;;14.43;7.85;;;17.40;95.00;;;;;;5011452;28;20025;-75
2021/09/26 07:33:58;;;;;;;14.93;8.32;;;17.40;95.10;;;;;;5011907;28;20025;-75
2021/09/26 07:36:23;;;;;;;14.10;7.40;;;17.40;95.10;;;;;;5011792;28;20050;-75
2021/09/26 07:38:49;;;;;;;13.55;7.85;;;17.40;95.20;;;;;;5010783;28;20048;-75
2021/09/26 07:41:15;;;;;;;14.98;7.95;;;17.50;95.20;;;;;;5015612;28;20454;-74
2021/09/26 07:43:40;;;;;;;14.13;7.82;;;17.40;95.20;;;;;;5031629;28;20021;-75
2021/09/26 07:46:06;;;;;;;12.60;7.30;;;17.40;95.20;;;;;;5032001;28;20088;-75
2021/09/26 07:48:32;;;;;;;13.00;7.82;;;17.50;95.30;;;;;;5031654;28;20021;-75
2021/09/26 07:50:58;;;;;;;14.45;7.47;;;17.50;95.20;;;;;;5031346;28;20087;-76
2021/09/26 07:53:24;;;;;;;12.13;7.75;;;17.60;95.20;;;;;;5031031;28;20033;-75
2021/09/26 07:55:51;;;;;;;12.18;7.22;;;17.60;95.20;;;;;;5030780;28;20386;-76
2021/09/26 07:58:17;;;;;;;13.65;7.25;;;17.70;95.20;;;;;;5027255;28;20034;-76
2021/09/26 08:00:43;;;;;;;14.30;7.97;;;17.70;95.10;;;;;;5010374;28;20144;-76
2021/09/26 08:03:09;;;;;;;13.05;7.25;;;17.80;95.10;;;;;;5025457;28;20018;-75
2021/09/26 08:05:35;;;;;;;14.15;7.50;;;17.90;95.00;;;;;;5031634;28;20401;-75
2021/09/26 08:08:00;;;;;;;13.38;7.55;;;17.90;95.00;;;;;;5031997;28;20110;-75
2021/09/26 08:10:26;;;;;;;12.82;7.28;;;18.00;95.00;;;;;;5032079;28;20462;-74
2021/09/26 08:12:52;;;;;;;13.02;7.85;;;18.10;94.90;;;;;;5031283;28;20159;-74
2021/09/26 08:15:18;;;;;;;13.13;7.45;;;18.10;94.90;;;;;;5031717;28;20032;-76
2021/09/26 08:17:44;;;;;;;13.85;7.10;;;18.20;94.90;;;;;;5030771;28;20160;-75
2021/09/26 08:20:10;;;;;;;12.02;7.15;;;18.20;94.90;;;;;;5031983;28;20028;-75
2021/09/26 08:22:36;;;;;;;12.02;6.60;;;18.30;94.90;;;;;;5029728;28;20025;-76
2021/09/26 08:25:03;;;;;;;12.70;6.40;;;18.30;94.80;;;;;;5030468;28;20026;-76
2021/09/26 08:27:30;;;;;;;13.05;7.25;;;18.30;94.80;;;;;;5031663;28;20535;-76
2021/09/26 08:29:56;;;;;;;13.60;7.88;;;18.30;94.90;;;;;;5026175;28;20524;-76
2021/09/26 08:32:22;;;;;;;10.65;6.80;;;18.20;95.00;;;;;;5026350;28;20026;-76
2021/09/26 08:34:47;;;;;;;12.30;7.03;;;18.20;95.10;;;;;;5030510;28;20029;-75
2021/09/26 08:37:13;;;;;;;13.98;7.53;;;18.20;95.20;;;;;;5026453;28;20046;-75
2021/09/26 08:39:39;;;;;;;12.18;7.10;;;18.10;95.30;;;;;;5010621;28;20038;-74
2021/09/26 08:42:05;;;;;;;11.60;7.18;;;18.10;95.30;;;;;;5031499;28;20018;-75
2021/09/26 08:44:30;;;;;;;13.90;7.47;;;18.10;95.30;;;;;;5029550;28;20021;-75
2021/09/26 08:46:57;;;;;;;14.85;7.75;;;18.20;95.40;;;;;;5030034;28;20030;-75
2021/09/26 08:49:23;;;;;;;14.00;7.70;;;18.20;95.40;;;;;;5029004;28;20040;-75
2021/09/26 08:51:51;;;;;;;12.40;7.88;;;18.20;95.40;;;;;;5033497;28;20501;-75
2021/09/26 08:54:17;;;;;;;13.07;7.75;;;18.20;95.50;;;;;;5034392;28;20029;-77
2021/09/26 08:56:43;;;;;;;11.77;7.85;;;18.30;95.40;;;;;;5034321;28;20037;-74
2021/09/26 08:59:10;;;;;;;11.85;6.75;;;18.30;95.40;;;;;;5034753;28;20029;-77
2021/09/26 09:01:36;;;;;;;12.68;7.47;;;18.40;95.30;;;;;;5035068;28;20048;-74
2021/09/26 09:04:03;;;;;;;14.30;7.40;;;18.50;95.30;;;;;;5034345;28;20063;-75
2021/09/26 09:06:39;;;;;;;14.35;8.48;;;18.60;95.30;;;;;;5034297;28;20026;-75
2021/09/26 09:09:15;;;;;;;13.52;7.75;;;18.70;95.30;;;;;;5032993;28;20374;-75
2021/09/26 09:12:05;;;;;;;13.68;7.97;;;18.70;95.20;;;;;;5033984;28;20022;-74
2021/09/26 09:14:54;;;;;;;12.27;7.07;;;18.70;95.20;;;;;;5033003;28;20041;-75
2021/09/26 09:17:36;;;;;;;16.50;8.40;;;18.80;95.20;;;;;;5034582;28;20025;-76
2021/09/26 09:20:18;;;;;;;16.10;9.48;;;18.80;95.30;;;;;;5033764;28;20039;-75
2021/09/26 09:22:47;;;;;;;14.73;9.45;;;18.80;95.40;;;;;;5033365;28;20029;-75
2021/09/26 09:25:58;;;;;;;16.40;9.90;;;18.70;95.40;;;;;;5032030;28;20033;-75
2021/09/26 09:28:29;;;;;;;14.15;9.05;;;18.80;95.50;;;;;;5054696;28;20053;-75
2021/09/26 09:31:03;;;;;;;17.30;9.35;;;18.90;95.50;;;;;;5037656;28;20041;-75
2021/09/26 09:33:43;;;;;;;18.48;9.35;;;18.90;95.50;;;;;;5027230;28;20116;-75
2021/09/26 09:36:18;;;;;;;14.43;8.88;;;19.00;95.40;;;;;;5028983;28;20026;-76
2021/09/26 09:38:45;;;;;;;15.82;9.73;;;19.10;95.40;;;;;;5018402;28;20044;-75
2021/09/26 09:41:11;;;;;;;17.70;10.52;;;19.20;95.30;;;;;;5034036;28;20075;-75
2021/09/26 09:43:48;;;;;;;15.05;9.93;;;19.30;95.30;;;;;;5033667;28;20037;-76
2021/09/26 09:46:27;;;;;;;17.13;10.07;;;19.30;95.20;;;;;;5032722;28;20064;-76
2021/09/26 09:49:10;;;;;;;16.35;10.25;;;19.40;95.20;;;;;;5032172;28;20096;-75
2021/09/26 09:51:38;;;;;;;18.02;9.68;;;19.30;95.20;;;;;;5033943;28;20083;-75
2021/09/26 09:54:04;;;;;;;14.93;9.95;;;19.40;95.20;;;;;;5033279;28;20083;-75
2021/09/26 09:56:43;;;;;;;15.88;9.57;;;19.40;95.20;;;;;;5034030;28;20087;-74
2021/09/26 09:59:13;;;;;;;16.77;9.95;;;19.50;95.20;;;;;;5033396;28;20034;-74
2021/09/26 10:01:39;;;;;;;16.25;10.77;;;19.50;95.10;;;;;;5031836;28;20029;-74
2021/09/26 10:04:07;;;;;;;13.70;8.63;;;19.60;95.20;;;;;;5032754;28;20457;-74
2021/09/26 10:06:37;;;;;;;14.95;10.02;;;19.70;95.10;;;;;;5033720;28;20030;-74
2021/09/26 10:09:27;;;;;;;18.73;10.75;;;19.80;95.00;;;;;;5032766;28;20029;-74
2021/09/26 10:12:00;;;;;;;18.55;10.85;;;19.90;94.90;;;;;;5031415;28;20026;-76
2021/09/26 10:14:33;;;;;;;18.33;11.30;;;20.10;94.70;;;;;;5034070;28;20109;-77
2021/09/26 10:17:01;;;;;;;19.13;11.05;;;20.10;94.60;;;;;;5033373;28;20485;-78
2021/09/26 10:19:28;;;;;;;16.58;10.90;;;20.20;94.50;;;;;;5033086;28;20072;-75
2021/09/26 10:21:57;;;;;;;19.98;11.55;;;20.30;94.50;;;;;;5032731;28;20029;-75
2021/09/26 10:24:25;;;;;;;17.70;11.52;;;20.30;94.50;;;;;;5031961;28;20025;-76
2021/09/26 10:26:52;;;;;;;19.27;11.50;;;20.40;94.40;;;;;;5032708;28;20029;-75
2021/09/26 10:29:20;;;;;;;12.75;8.88;;;20.40;94.40;;;;;;5033216;28;20029;-75
2021/09/26 10:31:50;;;;;;;15.63;10.55;;;20.50;94.40;;;;;;5031940;28;20063;-75
2021/09/26 10:34:20;;;;;;;15.07;10.35;;;20.50;94.40;;;;;;5030470;28;20034;-74
2021/09/26 10:36:47;;;;;;;15.57;10.18;;;20.60;94.40;;;;;;5029758;28;20128;-74
2021/09/26 10:39:14;;;;;;;17.65;10.32;;;20.60;94.50;;;;;;5030535;28;20037;-79
2021/09/26 10:42:13;;;;;;;14.75;9.38;;;20.60;94.20;;;;;;5030776;28;20029;-79
2021/09/26 10:44:48;;;;;;;15.38;9.90;;;20.70;94.20;;;;;;5029576;28;20014;-79
2021/09/26 10:47:22;;;;;;;15.82;10.25;;;20.80;94.10;;;;;;5029364;28;20049;-78
2021/09/26 10:49:57;;;;;;;15.60;8.80;;;20.80;94.00;;;;;;5030230;28;20030;-78
2021/09/26 10:52:33;;;;;;;16.90;10.93;;;20.90;93.90;;;;;;5030916;28;20017;-77
2021/09/26 10:55:23;;;;;;;13.50;9.13;;;21.00;93.80;;;;;;5030298;28;20026;-78
2021/09/26 10:58:01;;;;;;;16.58;10.23;;;21.10;93.70;;;;;;5028721;28;20363;-77
2021/09/26 11:00:31;;;;;;;15.43;9.48;;;21.20;93.50;;;;;;5027728;28;20022;-78
2021/09/26 11:03:09;;;;;;;16.00;10.60;;;21.30;93.50;;;;;;5028761;28;20037;-77
2021/09/26 11:05:37;;;;;;;13.23;8.70;;;21.40;93.30;;;;;;5024402;28;20088;-78
2021/09/26 11:08:08;;;;;;;15.85;10.45;;;21.50;93.20;;;;;;5029221;28;20021;-78
2021/09/26 11:10:37;;;;;;;15.25;9.40;;;21.60;93.10;;;;;;5030084;28;20051;-78
2021/09/26 11:13:07;;;;;;;17.15;10.85;;;21.70;92.90;;;;;;5028329;28;20057;-78
2021/09/26 11:15:33;;;;;;;13.90;9.80;;;21.70;92.80;;;;;;5028398;28;20049;-76
2021/09/26 11:17:59;;;;;;;14.07;9.05;;;21.70;92.90;;;;;;5029081;28;20021;-77
2021/09/26 11:20:25;;;;;;;12.98;9.10;;;21.70;92.90;;;;;;5035799;28;20087;-75
2021/09/26 11:23:19;;;;;;;13.55;8.23;;;21.60;92.90;;;;;;5009437;28;20018;-77
2021/09/26 11:26:00;;;;;;;16.27;10.73;;;21.70;92.90;;;;;;5010817;28;20087;-77
2021/09/26 11:28:35;;;;;;;11.38;8.07;;;21.80;92.90;;;;;;5009902;28;20042;-78
2021/09/26 11:31:09;;;;;;;14.43;10.55;;;21.90;92.80;;;;;;5030926;28;20057;-77
2021/09/26 11:33:58;;;;;;;16.60;10.50;;;22.00;92.50;;;;;;5029496;28;20389;-77
2021/09/26 11:36:26;;;;;;;12.77;8.50;;;22.10;92.40;;;;;;5027445;28;20132;-77
2021/09/26 11:38:52;;;;;;;15.00;10.23;;;22.20;92.30;;;;;;5027434;28;20095;-76
2021/09/26 11:41:37;;;;;;;14.93;9.27;;;22.20;92.20;;;;;;5029294;28;20695;-76
2021/09/26 11:44:05;;;;;;;12.13;8.30;;;22.30;92.00;;;;;;5027610;28;20100;-78
2021/09/26 11:46:32;;;;;;;11.10;7.82;;;22.30;92.00;;;;;;5029577;28;20454;-77
2021/09/26 11:49:03;;;;;;;11.52;7.45;;;22.40;91.90;;;;;;5027277;28;20357;-77
2021/09/26 11:51:29;;;;;;;15.20;8.65;;;22.50;91.80;;;;;;5029827;28;20026;-77
2021/09/26 11:53:55;;;;;;;11.43;8.40;;;22.60;91.60;;;;;;5028595;28;20055;-76
2021/09/26 11:56:28;;;;;;;11.68;8.15;;;22.60;91.50;;;;;;5024386;28;20546;-76
2021/09/26 11:58:56;;;;;;;12.88;9.32;;;22.80;91.30;;;;;;5024438;28;20033;-77
2021/09/26 12:01:36;;;;;;;11.80;8.57;;;22.90;91.10;;;;;;5027876;28;20465;-77
2021/09/26 12:04:07;;;;;;;11.95;7.55;;;23.00;90.80;;;;;;5028836;28;20100;-76
2021/09/26 12:06:33;;;;;;;;;;;23.10;90.80;;;;;;5029401;28;20032;-78
2021/09/26 12:08:58;;;;;;;13.90;9.07;;;23.20;90.60;;;;;;5026126;28;19905;-76
2021/09/26 12:11:25;;;;;;;15.70;10.27;;;23.20;90.40;;;;;;5041246;28;20116;-78
2021/09/26 12:13:53;;;;;;;11.85;8.35;;;23.10;90.30;;;;;;5028046;28;20017;-77
2021/09/26 12:16:20;;;;;;;12.23;9.30;;;23.10;90.30;;;;;;5028309;28;20021;-80
2021/09/26 12:18:51;;;;;;;12.35;7.82;;;23.10;90.30;;;;;;5027976;28;20133;-77
2021/09/26 12:21:17;;;;;;;14.15;8.10;;;23.10;90.30;;;;;;5028383;28;20029;-78
2021/09/26 12:23:52;;;;;;;12.45;8.70;;;23.00;90.20;;;;;;5029344;28;20029;-81
2021/09/26 12:26:32;;;;;;;11.70;7.90;;;23.00;90.10;;;;;;5032175;28;20026;-80
2021/09/26 12:29:03;;;;;;;9.77;6.43;;;23.00;90.10;;;;;;5031480;28;20375;-77
2021/09/26 12:31:31;;;;;;;9.07;5.25;;;22.90;90.20;;;;;;5033070;28;20026;-77
2021/09/26 12:33:58;;;;;;;11.25;6.03;;;22.90;90.20;;;;;;5032323;28;20108;-77
2021/09/26 12:36:27;;;;;;;10.07;6.88;;;22.90;90.20;;;;;;5033174;28;20092;-78
2021/09/26 12:38:56;;;;;;;13.23;7.55;;;22.90;90.30;;;;;;5029824;28;20061;-78
2021/09/26 12:41:26;;;;;;;10.07;7.45;;;22.90;90.10;;;;;;5019716;28;20022;-80
2021/09/26 12:43:58;;;;;;;13.55;7.68;;;22.80;90.20;;;;;;5013114;28;20022;-76